Time;durP1;ratioP1;P1;durP2;ratioP2;P2;SDS_P1;SDS_P2;PMS_P1;PMS_P2;Temp;Humidity;BMP_temperature;BMP_pressure;BME280_temperature;BME280_humidity;BME280_pressure;Samples;Min_cycle;Max_cycle;Signal;HPM_P1;HPM_P2
2023/01/01 00:00:21;;;;;;;0.98;0.98;;;;;;;-0.68;100.00;98854.50;4961206;28;20528;-82
2023/01/01 00:02:48;;;;;;;0.70;0.70;;;;;;;-0.71;100.00;98839.75;4945665;29;20047;-82
2023/01/01 00:05:15;;;;;;;0.80;0.80;;;;;;;-0.73;100.00;98836.47;4933521;29;20053;-85
2023/01/01 00:07:42;;;;;;;0.65;0.65;;;;;;;-0.74;100.00;98839.28;4959996;28;20510;-83
2023/01/01 00:10:28;;;;;;;0.90;0.90;;;;;;;-0.71;100.00;98834.47;4943536;28;20062;-85
2023/01/01 00:12:56;;;;;;;0.75;0.75;;;;;;;-0.71;100.00;98834.47;4938624;28;20079;-84
2023/01/01 00:15:24;;;;;;;0.90;0.90;;;;;;;-0.74;100.00;98834.78;4943711;28;20054;-84
2023/01/01 00:17:51;;;;;;;0.88;0.88;;;;;;;-0.78;100.00;98838.00;4971890;28;20051;-84
2023/01/01 00:20:18;;;;;;;0.90;0.90;;;;;;;-0.75;100.00;98829.69;4955278;28;20429;-86
2023/01/01 00:22:46;;;;;;;0.80;0.80;;;;;;;-0.76;100.00;98823.56;4954900;28;20085;-86
2023/01/01 00:25:22;;;;;;;0.80;0.80;;;;;;;-0.75;100.00;98825.19;4955610;28;20051;-86
2023/01/01 00:27:49;;;;;;;0.90;0.90;;;;;;;-0.73;100.00;98819.75;4955176;28;20043;-86
2023/01/01 00:30:17;;;;;;;1.00;1.00;;;;;;;-0.73;100.00;98817.91;4958315;28;20429;-86
2023/01/01 00:32:44;;;;;;;0.82;0.82;;;;;;;-0.72;100.00;98814.25;4958545;28;20157;-85
2023/01/01 00:35:23;;;;;;;0.70;0.70;;;;;;;-0.69;100.00;98821.84;4975464;28;20043;-85
2023/01/01 00:37:52;;;;;;;0.90;0.90;;;;;;;-0.69;100.00;98819.19;4957992;28;20070;-86
2023/01/01 00:40:19;;;;;;;0.70;0.70;;;;;;;-0.71;100.00;98812.41;4975095;28;20097;-85
2023/01/01 00:42:46;;;;;;;0.80;0.80;;;;;;;-0.70;100.00;98798.19;4957550;28;20054;-83
2023/01/01 00:45:13;;;;;;;0.90;0.90;;;;;;;-0.70;100.00;98787.56;4958213;28;20061;-85
2023/01/01 00:47:48;;;;;;;0.88;0.88;;;;;;;-0.72;100.00;98785.09;4942776;28;20067;-84
2023/01/01 00:50:15;;;;;;;0.80;0.80;;;;;;;-0.71;100.00;98775.31;4974670;28;20120;-85
2023/01/01 00:52:42;;;;;;;0.90;0.90;;;;;;;-0.72;100.00;98763.88;4975490;28;20134;-87
2023/01/01 00:55:10;;;;;;;0.90;0.90;;;;;;;-0.68;100.00;98754.59;4975057;28;20055;-86
2023/01/01 00:57:38;;;;;;;0.80;0.80;;;;;;;-0.67;100.00;98758.06;4958179;28;20042;-85
2023/01/01 01:00:06;;;;;;;0.82;0.82;;;;;;;-0.66;100.00;98749.09;4974974;28;20050;-85
2023/01/01 01:02:33;;;;;;;0.93;0.93;;;;;;;-0.65;100.00;98745.47;4974968;28;20417;-84
2023/01/01 01:05:03;;;;;;;0.90;0.90;;;;;;;-0.69;100.00;98739.69;4974729;28;20129;-84
2023/01/01 01:07:37;;;;;;;0.88;0.88;;;;;;;-0.64;100.00;98727.72;4975107;28;20067;-85
2023/01/01 01:10:05;;;;;;;0.88;0.88;;;;;;;-0.64;100.00;98733.84;4974530;28;20059;-84
2023/01/01 01:12:33;;;;;;;0.80;0.80;;;;;;;-0.69;100.00;98725.59;4975084;28;20078;-85
2023/01/01 01:15:01;;;;;;;0.90;0.90;;;;;;;-0.67;100.00;98728.91;4974383;28;20051;-85
2023/01/01 01:17:30;;;;;;;0.80;0.80;;;;;;;-0.67;100.00;98729.72;4974801;28;20055;-85
2023/01/01 01:19:57;;;;;;;0.90;0.90;;;;;;;-0.67;100.00;98718.31;4974476;28;20047;-84
2023/01/01 01:22:24;;;;;;;0.90;0.90;;;;;;;-0.68;100.00;98716.66;4974474;28;20047;-85
2023/01/01 01:24:56;;;;;;;0.70;0.70;;;;;;;-0.63;100.00;98718.75;4974783;28;20050;-84
2023/01/01 01:27:23;;;;;;;0.88;0.88;;;;;;;-0.62;100.00;98704.53;4974347;28;20051;-85
2023/01/01 01:29:50;;;;;;;0.82;0.82;;;;;;;-0.61;100.00;98704.31;4974402;28;20142;-85
2023/01/01 01:32:18;;;;;;;0.82;0.82;;;;;;;-0.63;100.00;98690.44;4974135;28;20054;-85
2023/01/01 01:34:46;;;;;;;0.82;0.82;;;;;;;-0.61;100.00;98701.66;4974753;28;20177;-85
2023/01/01 01:37:14;;;;;;;0.80;0.80;;;;;;;-0.63;100.00;98687.81;4956754;28;20054;-85
2023/01/01 01:39:41;;;;;;;0.80;0.80;;;;;;;-0.60;100.00;98687.44;4966305;28;20069;-85
2023/01/01 01:42:15;;;;;;;0.80;0.80;;;;;;;-0.63;100.00;98679.84;4956460;28;20489;-84
2023/01/01 01:44:46;;;;;;;0.80;0.80;;;;;;;-0.62;100.00;98689.44;4957076;28;20053;-84
2023/01/01 01:47:16;;;;;;;0.70;0.70;;;;;;;-0.67;100.00;98679.38;4973782;28;20047;-84
2023/01/01 01:49:44;;;;;;;0.75;0.75;;;;;;;-0.62;100.00;98678.00;4940912;28;20047;-84
2023/01/01 01:52:11;;;;;;;0.80;0.80;;;;;;;-0.62;100.00;98675.38;4973743;28;20061;-85
2023/01/01 01:54:39;;;;;;;0.75;0.75;;;;;;;-0.61;100.00;98669.88;4956864;28;20050;-83
2023/01/01 01:57:08;;;;;;;0.80;0.80;;;;;;;-0.58;100.00;98674.81;4973628;28;20043;-84
2023/01/01 01:59:40;;;;;;;0.80;0.80;;;;;;;-0.57;100.00;98667.69;4956804;28;20054;-83
2023/01/01 02:02:17;;;;;;;0.80;0.80;;;;;;;-0.58;100.00;98668.69;4956121;28;20058;-83
2023/01/01 02:04:45;;;;;;;0.80;0.80;;;;;;;-0.59;100.00;98662.56;4956560;28;20049;-83
2023/01/01 02:07:13;;;;;;;0.80;0.80;;;;;;;-0.62;100.00;98673.53;4973433;28;20085;-83
2023/01/01 02:09:40;;;;;;;0.73;0.73;;;;;;;-0.58;100.00;98677.47;4973480;28;20043;-83
2023/01/01 02:12:07;;;;;;;0.70;0.70;;;;;;;-0.57;100.00;98663.22;4973600;28;20054;-84
2023/01/01 02:14:34;;;;;;;0.75;0.75;;;;;;;-0.54;100.00;98652.22;4956323;28;20462;-84
2023/01/01 02:17:08;;;;;;;0.80;0.80;;;;;;;-0.56;100.00;98654.25;4973279;28;20051;-84
2023/01/01 02:19:47;;;;;;;0.90;0.90;;;;;;;-0.57;100.00;98657.91;4973768;28;20086;-85
2023/01/01 02:22:34;;;;;;;0.70;0.70;;;;;;;-0.55;100.00;98649.78;4973124;28;20077;-85
2023/01/01 02:25:40;;;;;;;;;;;;;;;;;;;;;
2023/01/01 02:28:42;;;;;;;0.90;0.90;;;;;;;-0.55;100.00;98640.00;4943911;28;20395;-84
2023/01/01 02:31:13;;;;;;;0.80;0.80;;;;;;;-0.54;100.00;98636.34;4955597;28;20059;-84
2023/01/01 02:33:49;;;;;;;0.90;0.90;;;;;;;-0.50;100.00;98628.84;4956220;28;20133;-83
2023/01/01 02:36:18;;;;;;;0.73;0.73;;;;;;;-0.49;100.00;98635.78;4939988;28;20047;-85
2023/01/01 02:38:47;;;;;;;0.70;0.70;;;;;;;-0.53;100.00;98632.69;4955976;28;20139;-84
2023/01/01 02:41:30;;;;;;;0.90;0.90;;;;;;;-0.54;100.00;98624.91;4955882;28;20125;-84
2023/01/01 02:43:57;;;;;;;0.77;0.77;;;;;;;-0.52;100.00;98626.38;4955966;28;20506;-84
2023/01/01 02:46:30;;;;;;;0.70;0.70;;;;;;;-0.49;100.00;98631.31;4973249;28;20130;-83
2023/01/01 02:48:57;;;;;;;0.93;0.93;;;;;;;-0.50;100.00;98619.06;4973342;28;20058;-84
2023/01/01 02:51:35;;;;;;;0.80;0.80;;;;;;;-0.50;100.00;98624.38;4972730;28;20114;-84
2023/01/01 02:54:16;;;;;;;0.80;0.80;;;;;;;-0.53;100.00;98614.13;4955645;28;20711;-84
2023/01/01 02:57:03;;;;;;;0.75;0.75;;;;;;;-0.51;100.00;98606.78;4955613;28;20058;-86
2023/01/01 03:00:30;;;;;;;0.80;0.80;;;;;;;-0.47;100.00;98592.19;4955472;28;20584;-85
2023/01/01 03:03:00;;;;;;;1.00;1.00;;;;;;;-0.47;100.00;98589.53;4862478;29;20579;-85
2023/01/01 03:06:21;;;;;;;0.80;0.80;;;;;;;-0.46;100.00;98574.44;4875414;29;20076;-85
2023/01/01 03:08:36;;;;;;;0.80;0.80;;;;;;;-0.43;100.00;98579.41;4875119;29;20083;-85
2023/01/01 03:11:07;;;;;;;0.85;0.85;;;;;;;-0.50;100.00;98576.66;4875218;29;20497;-86
2023/01/01 03:13:38;;;;;;;0.80;0.80;;;;;;;-0.47;100.00;98575.47;4859885;29;20524;-84
2023/01/01 03:16:24;;;;;;;0.80;0.80;;;;;;;-0.45;100.00;98562.84;4879442;29;20068;-86
2023/01/01 03:19:11;;;;;;;0.73;0.73;;;;;;;-0.40;100.00;98567.59;4867873;29;20444;-86
2023/01/01 03:22:15;;;;;;;0.95;0.95;;;;;;;-0.39;100.00;98561.28;4860564;29;20523;-85
2023/01/01 03:25:24;;;;;;;0.90;0.90;;;;;;;-0.46;100.00;98547.94;4875124;29;20536;-85
2023/01/01 03:27:56;;;;;;;0.82;0.82;;;;;;;-0.47;100.00;98555.06;4804783;29;20085;-84
2023/01/01 03:30:24;;;;;;;0.70;0.70;;;;;;;-0.49;100.00;98551.78;4819606;29;20537;-86
2023/01/01 03:33:02;;;;;;;0.90;0.90;;;;;;;-0.44;100.00;98541.44;4825403;29;20448;-84
2023/01/01 03:35:39;;;;;;;0.70;0.70;;;;;;;-0.42;100.00;98535.97;4818329;29;20509;-82
2023/01/01 03:38:16;;;;;;;0.82;0.82;;;;;;;-0.42;100.00;98538.59;4831466;29;20398;-85
2023/01/01 03:40:45;;;;;;;0.90;0.90;;;;;;;-0.40;100.00;98547.22;4841530;29;20061;-82
2023/01/01 03:43:18;;;;;;;0.80;0.80;;;;;;;-0.39;100.00;98530.28;4840759;29;20057;-81
2023/01/01 03:45:46;;;;;;;0.93;0.93;;;;;;;-0.42;100.00;98525.34;4856483;29;20076;-83
2023/01/01 03:48:12;;;;;;;0.80;0.80;;;;;;;-0.42;100.00;98533.31;4841315;29;20064;-83
2023/01/01 03:51:02;;;;;;;0.80;0.80;;;;;;;-0.44;100.00;98519.41;4856503;29;20073;-83
2023/01/01 03:53:38;;;;;;;0.95;0.95;;;;;;;-0.46;100.00;98524.06;4856225;29;20764;-83
2023/01/01 03:56:05;;;;;;;0.90;0.90;;;;;;;-0.45;100.00;98520.44;4840711;29;20057;-82
2023/01/01 03:58:37;;;;;;;0.90;0.90;;;;;;;-0.44;100.00;98509.63;4856065;29;20046;-83
2023/01/01 04:01:12;;;;;;;0.80;0.80;;;;;;;-0.42;100.00;98492.72;4860743;29;20057;-83
2023/01/01 04:03:39;;;;;;;;;;;;;;;-0.42;100.00;98498.84;4954349;28;20056;-83
2023/01/01 04:06:06;;;;;;;1.00;1.00;;;;;;;-0.44;100.00;98487.59;4938561;28;19953;-82
2023/01/01 04:08:34;;;;;;;0.90;0.90;;;;;;;-0.42;100.00;98498.03;4954627;28;20053;-83
2023/01/01 04:12:00;;;;;;;0.80;0.80;;;;;;;-0.39;100.00;98501.13;4971635;28;20054;-83
2023/01/01 04:13:54;;;;;;;0.80;0.80;;;;;;;-0.45;100.00;98507.16;4957370;28;20133;-83
2023/01/01 04:16:21;;;;;;;0.80;0.80;;;;;;;-0.41;100.00;98502.31;4971242;28;20069;-83
2023/01/01 04:18:49;;;;;;;0.73;0.73;;;;;;;-0.38;100.00;98486.88;4971630;28;20051;-83
2023/01/01 04:21:16;;;;;;;0.90;0.90;;;;;;;-0.34;100.00;98482.81;4971556;28;20047;-84
2023/01/01 04:23:43;;;;;;;0.90;0.90;;;;;;;-0.31;100.00;98473.66;4953891;28;20145;-84
2023/01/01 04:26:15;;;;;;;0.90;0.90;;;;;;;-0.32;100.00;98487.94;4954117;28;20053;-83
2023/01/01 04:28:42;;;;;;;0.88;0.88;;;;;;;-0.32;100.00;98480.81;4946610;28;20055;-83
2023/01/01 04:31:10;;;;;;;0.90;0.90;;;;;;;-0.28;100.00;98482.09;4971319;28;20089;-84
2023/01/01 04:33:38;;;;;;;0.80;0.80;;;;;;;-0.32;100.00;98466.72;4971481;28;20074;-84
2023/01/01 04:36:06;;;;;;;0.88;0.88;;;;;;;-0.32;100.00;98467.53;4938090;28;20402;-83
2023/01/01 04:38:35;;;;;;;0.90;0.90;;;;;;;-0.30;100.00;98465.53;4971469;28;20053;-83
2023/01/01 04:41:03;;;;;;;0.70;0.70;;;;;;;-0.31;100.00;98473.66;4971184;28;20517;-84
2023/01/01 04:43:30;;;;;;;0.90;0.90;;;;;;;-0.31;100.00;98466.53;4971484;28;20051;-84
2023/01/01 04:45:59;;;;;;;0.80;0.80;;;;;;;-0.27;100.00;98469.63;4971414;28;20050;-83
2023/01/01 04:48:28;;;;;;;0.90;0.90;;;;;;;-0.24;100.00;98461.31;4954294;28;20046;-84
2023/01/01 04:50:57;;;;;;;0.90;0.90;;;;;;;-0.27;100.00;98459.84;4972709;28;20063;-83
2023/01/01 04:53:25;;;;;;;0.82;0.82;;;;;;;-0.28;100.00;98462.66;4973674;28;20051;-84
2023/01/01 04:55:52;;;;;;;0.80;0.80;;;;;;;-0.24;100.00;98467.41;4972451;28;20074;-83
2023/01/01 04:58:19;;;;;;;0.73;0.73;;;;;;;-0.22;100.00;98467.25;4971116;28;20709;-83
2023/01/01 05:00:50;;;;;;;0.80;0.80;;;;;;;-0.23;100.00;98466.44;4953851;28;20046;-83
2023/01/01 05:03:17;;;;;;;0.80;0.80;;;;;;;-0.17;100.00;98459.53;4970804;28;20109;-82
2023/01/01 05:05:44;;;;;;;0.75;0.75;;;;;;;-0.17;100.00;98440.97;4954266;28;20055;-82
2023/01/01 05:08:17;;;;;;;0.80;0.80;;;;;;;-0.15;100.00;98452.22;4954548;28;20081;-84
2023/01/01 05:10:44;;;;;;;0.90;0.90;;;;;;;-0.15;100.00;98449.56;4971197;28;20062;-84
2023/01/01 05:13:11;;;;;;;0.90;0.90;;;;;;;-0.12;100.00;98451.03;4970947;28;20081;-82
2023/01/01 05:15:38;;;;;;;0.80;0.80;;;;;;;-0.16;100.00;98458.53;4947743;28;20046;-83
2023/01/01 05:18:05;;;;;;;0.80;0.80;;;;;;;-0.13;100.00;98465.28;4965084;28;20047;-83
2023/01/01 05:20:32;;;;;;;0.90;0.90;;;;;;;-0.12;100.00;98466.94;4963627;28;20394;-83
2023/01/01 05:22:59;;;;;;;0.88;0.88;;;;;;;-0.11;100.00;98453.47;4974623;28;20055;-81
2023/01/01 05:25:26;;;;;;;0.80;0.80;;;;;;;-0.14;100.00;98456.50;4948918;28;20143;-81
2023/01/01 05:27:53;;;;;;;0.90;0.90;;;;;;;-0.13;100.00;98444.06;4966113;28;20421;-81
2023/01/01 05:30:20;;;;;;;0.80;0.80;;;;;;;-0.12;100.00;98445.72;4972170;28;20059;-79
2023/01/01 05:32:47;;;;;;;0.90;0.90;;;;;;;-0.12;100.00;98435.91;4955229;29;20410;-85
2023/01/01 05:35:14;;;;;;;0.93;0.93;;;;;;;-0.12;100.00;98433.28;4937743;29;20130;-84
2023/01/01 05:37:46;;;;;;;0.80;0.80;;;;;;;-0.11;100.00;98426.13;4937930;29;20047;-84
2023/01/01 05:40:13;;;;;;;0.85;0.85;;;;;;;-0.11;100.00;98426.94;4955746;29;20051;-83
2023/01/01 05:42:41;;;;;;;1.00;1.00;;;;;;;-0.06;100.00;98436.97;4609204;28;10001721;-84
2023/01/01 05:45:08;;;;;;;0.88;0.88;;;;;;;-0.07;100.00;98438.81;4925879;29;20062;-83
2023/01/01 05:47:36;;;;;;;0.88;0.88;;;;;;;-0.08;100.00;98442.47;4915491;29;20558;-85
2023/01/01 05:50:03;;;;;;;0.80;0.80;;;;;;;-0.19;100.00;98423.59;4932322;29;20087;-81
2023/01/01 05:52:29;;;;;;;0.90;0.90;;;;;;;-0.08;100.00;98437.16;4931912;29;20048;-82
2023/01/01 05:54:57;;;;;;;0.90;0.90;;;;;;;-0.15;100.00;98430.16;4937007;29;20664;-84
2023/01/01 05:57:28;;;;;;;0.90;0.90;;;;;;;-0.08;100.00;98431.84;4948975;29;20457;-83
2023/01/01 05:59:56;;;;;;;0.80;0.80;;;;;;;-0.10;100.00;98417.16;4951942;28;20498;-82
2023/01/01 06:02:23;;;;;;;0.90;0.90;;;;;;;-0.10;100.00;98420.63;4971151;28;20121;-81
2023/01/01 06:04:50;;;;;;;0.85;0.85;;;;;;;-0.19;100.00;98392.59;4924562;29;20047;-83
2023/01/01 06:07:17;;;;;;;0.77;0.77;;;;;;;-0.07;100.00;98422.09;4944332;29;20055;-82
2023/01/01 06:09:44;;;;;;;0.80;0.80;;;;;;;-0.12;100.00;98417.34;4944839;29;20054;-83
2023/01/01 06:12:11;;;;;;;0.90;0.90;;;;;;;-0.10;100.00;98415.34;4951806;28;20058;-82
2023/01/01 06:14:38;;;;;;;0.80;0.80;;;;;;;-0.07;100.00;98414.13;4938875;29;20147;-82
2023/01/01 06:17:05;;;;;;;0.93;0.93;;;;;;;-0.04;100.00;98421.72;4943922;29;20075;-83
2023/01/01 06:19:32;;;;;;;0.90;0.90;;;;;;;-0.09;100.00;98394.94;4943013;29;20142;-82
2023/01/01 06:21:59;;;;;;;0.90;0.90;;;;;;;-0.05;100.00;98393.50;4942149;28;20047;-83
2023/01/01 06:24:27;;;;;;;0.90;0.90;;;;;;;-0.04;100.00;98395.19;4953318;28;20079;-82
2023/01/01 06:26:58;;;;;;;0.90;0.90;;;;;;;-0.03;100.00;98391.50;4951536;28;20130;-82
2023/01/01 06:29:25;;;;;;;0.90;0.90;;;;;;;0.00;100.00;98396.44;4951770;28;20051;-83
2023/01/01 06:31:52;;;;;;;0.88;0.88;;;;;;;-0.03;100.00;98384.34;4955181;28;20043;-83
2023/01/01 06:34:19;;;;;;;0.90;0.90;;;;;;;0.01;100.00;98398.06;4952231;28;20043;-81
2023/01/01 06:36:46;;;;;;;0.80;0.80;;;;;;;0.04;100.00;98410.13;4939025;28;20054;-81
2023/01/01 06:39:15;;;;;;;0.90;0.90;;;;;;;0.05;100.00;98409.97;4937141;28;20058;-81
2023/01/01 06:41:42;;;;;;;0.77;0.77;;;;;;;0.04;100.00;98407.47;4940584;28;20072;-80
2023/01/01 06:44:09;;;;;;;0.90;0.90;;;;;;;0.04;100.00;98391.56;4923606;29;20071;-82
2023/01/01 06:46:36;;;;;;;0.80;0.80;;;;;;;0.11;100.00;98384.47;4926108;28;20051;-80
2023/01/01 06:49:11;;;;;;;0.90;0.90;;;;;;;0.07;100.00;98383.22;4947561;28;20158;-83
2023/01/01 06:51:44;;;;;;;1.00;1.00;;;;;;;0.04;100.00;98381.78;4946615;28;20485;-83
2023/01/01 06:54:11;;;;;;;0.90;0.90;;;;;;;0.03;100.00;98363.41;4952146;28;20058;-82
2023/01/01 06:56:38;;;;;;;0.88;0.88;;;;;;;0.12;100.00;98380.81;4932328;29;20529;-83
2023/01/01 06:59:06;;;;;;;0.90;0.90;;;;;;;0.13;100.00;98358.59;4957228;28;20538;-81
2023/01/01 07:01:34;;;;;;;0.80;0.80;;;;;;;0.15;100.00;98356.53;4904119;29;20060;-82
2023/01/01 07:04:04;;;;;;;0.90;0.90;;;;;;;0.20;100.00;98359.44;4931708;29;20050;-81
2023/01/01 07:06:33;;;;;;;0.90;0.90;;;;;;;0.13;100.00;98347.97;4918424;29;20153;-82
2023/01/01 07:09:00;;;;;;;0.93;0.93;;;;;;;0.17;100.00;98359.81;4952259;28;20057;-82
2023/01/01 07:11:28;;;;;;;0.80;0.80;;;;;;;0.20;100.00;98354.13;4952439;28;20090;-82
2023/01/01 07:13:55;;;;;;;0.90;0.90;;;;;;;0.19;100.00;98349.84;4941908;28;20046;-82
2023/01/01 07:16:22;;;;;;;0.93;0.93;;;;;;;0.22;100.00;98347.59;4956840;28;20054;-81
2023/01/01 07:18:50;;;;;;;0.88;0.88;;;;;;;0.21;100.00;98355.78;4941868;28;20046;-81
2023/01/01 07:21:39;;;;;;;0.90;0.90;;;;;;;0.21;100.00;98340.66;4959906;28;20054;-83
2023/01/01 07:24:11;;;;;;;0.90;0.90;;;;;;;0.20;100.00;98338.19;4952788;28;20051;-83
2023/01/01 07:26:39;;;;;;;0.90;0.90;;;;;;;0.18;100.00;98335.75;4933606;29;20048;-85
2023/01/01 07:29:09;;;;;;;0.90;0.90;;;;;;;0.19;100.00;98332.06;4938504;29;20083;-83
2023/01/01 07:31:38;;;;;;;0.90;0.90;;;;;;;0.29;100.00;98347.66;4929750;28;20055;-83
2023/01/01 07:34:08;;;;;;;0.90;0.90;;;;;;;0.27;100.00;98328.44;4948645;28;20125;-85
2023/01/01 07:36:35;;;;;;;0.80;0.80;;;;;;;0.29;100.00;98336.22;4916063;29;20070;-83
2023/01/01 07:42:01;;;;;;;0.90;0.90;;;;;;;0.39;100.00;98337.50;4908692;29;20091;-84
2023/01/01 07:44:36;;;;;;;0.70;0.70;;;;;;;0.43;100.00;98338.75;4933181;29;20048;-83
2023/01/01 07:47:05;;;;;;;0.88;0.88;;;;;;;0.42;100.00;98338.94;4926877;29;20059;-84
2023/01/01 07:49:34;;;;;;;0.90;0.90;;;;;;;0.50;100.00;98333.47;4914421;29;20052;-85
2023/01/01 07:52:03;;;;;;;0.73;0.73;;;;;;;0.45;100.00;98322.63;4915399;29;20060;-85
2023/01/01 07:54:30;;;;;;;1.00;1.00;;;;;;;0.54;100.00;98328.59;4903441;29;20052;-85
2023/01/01 07:56:58;;;;;;;1.00;1.00;;;;;;;0.60;100.00;98333.94;4935954;29;20043;-83
2023/01/01 07:59:25;;;;;;;0.90;0.90;;;;;;;0.62;100.00;98320.47;4928479;29;20055;-83
2023/01/01 08:01:52;;;;;;;0.90;0.90;;;;;;;0.61;100.00;98308.22;4951245;23;20070;-83
2023/01/01 08:04:20;;;;;;;0.90;0.90;;;;;;;0.55;100.00;98309.00;4942326;23;20055;-83
2023/01/01 08:06:47;;;;;;;0.90;0.90;;;;;;;0.61;100.00;98309.03;4967258;28;20465;-83
2023/01/01 08:09:14;;;;;;;0.80;0.80;;;;;;;0.64;100.00;98313.13;4990898;28;20137;-84
2023/01/01 08:11:41;;;;;;;0.80;0.80;;;;;;;0.66;100.00;98316.41;4982319;28;20054;-84
2023/01/01 08:14:08;;;;;;;0.82;0.82;;;;;;;0.70;100.00;98317.63;4980311;28;20130;-83
2023/01/01 08:16:35;;;;;;;0.90;0.90;;;;;;;0.74;100.00;98326.88;4965920;28;20054;-83
2023/01/01 08:19:02;;;;;;;0.80;0.80;;;;;;;0.76;100.00;98326.66;4972930;28;20050;-84
2023/01/01 08:21:44;;;;;;;0.80;0.80;;;;;;;0.78;100.00;98330.75;4971415;28;20424;-84
2023/01/01 08:24:11;;;;;;;0.90;0.90;;;;;;;0.76;100.00;98326.66;4971479;28;20477;-83
2023/01/01 08:26:38;;;;;;;0.80;0.80;;;;;;;0.82;100.00;98309.94;4981356;28;20201;-83
2023/01/01 08:29:06;;;;;;;0.75;0.75;;;;;;;0.89;100.00;98323.22;4987541;28;20081;-82
2023/01/01 08:31:33;;;;;;;0.80;0.80;;;;;;;0.88;100.00;98308.31;4973055;28;20062;-82
2023/01/01 08:34:01;;;;;;;0.90;0.90;;;;;;;0.91;100.00;98314.03;4979848;28;20149;-83
2023/01/01 08:36:29;;;;;;;0.90;0.90;;;;;;;0.90;100.00;98301.78;4985401;28;20128;-84
2023/01/01 08:38:56;;;;;;;0.80;0.80;;;;;;;0.94;100.00;98303.03;4957010;28;20150;-86
2023/01/01 08:41:27;;;;;;;0.80;0.80;;;;;;;0.99;100.00;98300.59;4990221;28;20560;-84
2023/01/01 08:43:54;;;;;;;0.70;0.70;;;;;;;0.91;100.00;98281.34;4983678;28;20084;-80
2023/01/01 08:46:21;;;;;;;0.80;0.80;;;;;;;1.00;100.00;98296.09;4982161;28;20113;-81
2023/01/01 08:48:48;;;;;;;0.80;0.80;;;;;;;0.99;100.00;98284.66;4970448;28;20047;-83
2023/01/01 08:51:18;;;;;;;0.80;0.80;;;;;;;0.98;100.00;98271.56;4968675;28;20058;-82
2023/01/01 08:53:54;;;;;;;0.90;0.90;;;;;;;1.00;100.00;98266.88;4958410;28;20050;-82
2023/01/01 08:56:21;;;;;;;0.85;0.85;;;;;;;1.08;100.00;98286.09;4992638;28;20077;-82
2023/01/01 08:59:09;;;;;;;0.95;0.95;;;;;;;1.07;100.00;98281.00;4992173;28;20421;-82
2023/01/01 09:01:36;;;;;;;0.90;0.90;;;;;;;1.07;100.00;98275.69;4989970;28;20069;-83
2023/01/01 09:04:03;;;;;;;0.90;0.90;;;;;;;1.03;100.00;98277.91;4985518;28;20125;-81
2023/01/01 09:06:30;;;;;;;0.90;0.90;;;;;;;1.10;100.00;98272.59;4976541;28;20065;-82
2023/01/01 09:08:57;;;;;;;0.80;0.80;;;;;;;1.10;100.00;98277.13;4994264;28;20058;-80
2023/01/01 09:11:27;;;;;;;0.82;0.82;;;;;;;1.18;100.00;98277.72;4987428;28;20082;-82
2023/01/01 09:13:54;;;;;;;0.80;0.80;;;;;;;1.16;100.00;98268.31;4986354;28;20148;-82
2023/01/01 09:16:21;;;;;;;1.00;1.00;;;;;;;1.19;100.00;98262.59;4941320;28;20047;-83
2023/01/01 09:18:49;;;;;;;0.90;0.90;;;;;;;1.19;100.00;98239.50;4969605;28;20432;-83
2023/01/01 09:21:16;;;;;;;0.90;0.90;;;;;;;1.23;100.00;98243.38;4976602;28;20069;-83
2023/01/01 09:23:43;;;;;;;0.80;0.80;;;;;;;1.16;100.00;98215.16;4970401;28;20055;-83
2023/01/01 09:26:10;;;;;;;0.90;0.90;;;;;;;1.16;100.00;98213.31;4994959;28;20073;-83
2023/01/01 09:28:38;;;;;;;0.80;0.80;;;;;;;1.24;100.00;98229.09;4962544;28;20441;-83
2023/01/01 09:31:05;;;;;;;0.80;0.80;;;;;;;1.28;100.00;98229.50;4972598;28;20057;-86
2023/01/01 09:33:34;;;;;;;0.90;0.90;;;;;;;1.27;100.00;98223.34;4960568;28;20054;-85
2023/01/01 09:36:17;;;;;;;0.90;0.90;;;;;;;1.33;100.00;98226.22;4975278;28;20478;-85
2023/01/01 09:38:51;;;;;;;0.80;0.80;;;;;;;1.26;100.00;98215.56;4615956;28;10000317;-85
2023/01/01 09:41:42;;;;;;;0.80;0.80;;;;;;;1.36;100.00;98209.84;4970427;28;20402;-84
2023/01/01 09:44:25;;;;;;;0.80;0.80;;;;;;;1.24;100.00;98191.03;4985322;23;20055;-83
2023/01/01 09:47:35;;;;;;;0.80;0.80;;;;;;;1.32;100.00;98184.69;4966011;28;20056;-83
2023/01/01 09:50:33;;;;;;;0.80;0.80;;;;;;;1.29;100.00;98189.41;4976327;28;20058;-85
2023/01/01 09:57:38;;;;;;;0.80;0.80;;;;;;;1.34;100.00;98196.75;4976056;23;20077;-80
2023/01/01 10:05:24;;;;;;;;;;;;;;;;;;;;;
2023/01/01 10:08:34;;;;;;;0.90;0.90;;;;;;;1.52;100.00;98190.84;4961423;28;20046;-82
2023/01/01 10:11:16;;;;;;;0.90;0.90;;;;;;;1.57;100.00;98182.22;4998038;23;20025;-85
2023/01/01 10:13:45;;;;;;;0.90;0.90;;;;;;;1.57;100.00;98188.38;4948439;28;20050;-87
2023/01/01 10:16:27;;;;;;;0.90;0.90;;;;;;;1.63;100.00;98187.53;4949312;28;20118;-87
2023/01/01 10:18:58;;;;;;;0.90;0.90;;;;;;;1.60;100.00;98182.66;4963564;28;20047;-87
2023/01/01 10:21:32;;;;;;;0.82;0.82;;;;;;;1.51;100.00;98159.94;4938063;28;20084;-82
2023/01/01 10:24:02;;;;;;;0.90;0.90;;;;;;;1.68;100.00;98171.78;4971004;28;20678;-84
2023/01/01 10:26:30;;;;;;;0.80;0.80;;;;;;;1.62;100.00;98151.34;4922062;28;20138;-83
2023/01/01 10:29:03;;;;;;;0.90;0.90;;;;;;;1.73;100.00;98168.50;4918526;28;20047;-83
2023/01/01 10:31:33;;;;;;;0.90;0.90;;;;;;;1.69;100.00;98152.13;4963434;28;20510;-84
2023/01/01 10:34:24;;;;;;;0.90;0.90;;;;;;;1.74;100.00;98143.53;4933024;28;20057;-84
2023/01/01 10:37:05;;;;;;;0.90;0.90;;;;;;;1.67;100.00;98126.75;4937271;28;20050;-86
2023/01/01 10:39:37;;;;;;;0.90;0.90;;;;;;;1.82;100.00;98140.63;4943005;28;20043;-83
2023/01/01 10:42:11;;;;;;;0.90;0.90;;;;;;;1.84;100.00;98138.56;4933669;28;20058;-85
2023/01/01 10:44:38;;;;;;;0.90;0.90;;;;;;;1.85;100.00;98137.56;4916873;28;20079;-85
2023/01/01 10:47:19;;;;;;;0.80;0.80;;;;;;;1.85;100.00;98134.91;4935603;28;20078;-87
2023/01/01 10:50:07;;;;;;;0.90;0.90;;;;;;;1.90;100.00;98135.09;4929716;28;20695;-82
2023/01/01 10:52:58;;;;;;;0.90;0.90;;;;;;;1.88;100.00;98131.81;4954624;28;20059;-82
2023/01/01 10:55:35;;;;;;;0.88;0.88;;;;;;;1.83;100.00;98115.66;4927043;28;20129;-81
2023/01/01 10:58:34;;;;;;;0.90;0.90;;;;;;;1.85;100.00;98105.66;4971799;28;20050;-82
2023/01/01 11:01:03;;;;;;;0.82;0.82;;;;;;;1.96;100.00;98130.78;4955405;28;20054;-82
2023/01/01 11:03:30;;;;;;;0.88;0.88;;;;;;;1.90;100.00;98107.66;4954742;28;20051;-80
2023/01/01 11:06:08;;;;;;;0.80;0.80;;;;;;;1.88;100.00;98099.91;4967564;28;20047;-82
2023/01/01 11:08:38;;;;;;;0.90;0.90;;;;;;;2.02;100.00;98115.81;4955558;28;20119;-82
2023/01/01 11:11:09;;;;;;;0.90;0.90;;;;;;;1.88;100.00;98091.09;4923506;28;20050;-83
2023/01/01 11:13:37;;;;;;;0.80;0.80;;;;;;;1.97;100.00;98097.78;4972461;28;20063;-79
2023/01/01 11:16:10;;;;;;;0.80;0.80;;;;;;;2.02;100.00;98115.81;4955145;28;20101;-80
2023/01/01 11:18:37;;;;;;;0.80;0.80;;;;;;;1.94;100.00;98116.84;4972354;28;20167;-82
2023/01/01 11:21:05;;;;;;;0.82;0.82;;;;;;;2.00;100.00;98116.03;4938619;28;20051;-82
2023/01/01 11:23:34;;;;;;;0.85;0.85;;;;;;;2.01;100.00;98107.00;4954549;28;20458;-81
2023/01/01 11:26:23;;;;;;;0.90;0.90;;;;;;;1.95;100.00;98099.88;4971790;28;20118;-82
2023/01/01 11:29:04;;;;;;;0.90;0.90;;;;;;;2.06;100.00;98103.72;4955426;28;20050;-80
2023/01/01 11:31:36;;;;;;;0.80;0.80;;;;;;;2.05;100.00;98099.41;4953514;28;20058;-81
2023/01/01 11:34:24;;;;;;;0.80;0.80;;;;;;;2.05;100.00;98100.25;4944461;28;20411;-81
2023/01/01 11:36:52;;;;;;;0.90;0.90;;;;;;;2.04;100.00;98095.13;4955021;28;20082;-81
2023/01/01 11:39:30;;;;;;;0.90;0.90;;;;;;;2.01;100.00;98087.56;4954979;28;20572;-82
2023/01/01 11:41:58;;;;;;;0.90;0.90;;;;;;;2.03;100.00;98096.97;4939009;28;20098;-83
2023/01/01 11:44:39;;;;;;;0.75;0.75;;;;;;;2.06;100.00;98083.22;4963882;28;20370;-82
2023/01/01 11:47:18;;;;;;;0.90;0.90;;;;;;;2.04;100.00;98079.97;4954328;28;20050;-81
2023/01/01 11:49:52;;;;;;;0.60;0.60;;;;;;;2.08;100.00;98083.84;4948151;28;20050;-82
2023/01/01 11:52:37;;;;;;;0.80;0.80;;;;;;;2.00;100.00;98059.31;4944933;28;20054;-82
2023/01/01 11:55:16;;;;;;;0.82;0.82;;;;;;;2.07;100.00;98076.88;4951649;29;20554;-81
2023/01/01 11:58:06;;;;;;;0.75;0.75;;;;;;;2.02;100.00;98076.69;4952935;29;20059;-83
2023/01/01 12:00:35;;;;;;;0.90;0.90;;;;;;;2.11;100.00;98072.75;4952601;29;20446;-81
2023/01/01 12:03:05;;;;;;;0.90;0.90;;;;;;;2.12;100.00;98066.41;4956261;28;20050;-82
2023/01/01 12:06:07;;;;;;;0.80;0.80;;;;;;;2.15;100.00;98066.00;4968862;28;20142;-82